< < Back
Terminal Aerodrome Forecast


Current Version              Previous Versions:   1  2  3  4  5  6  7  8  9  

Terminal Aerodrome Forecast

303
FTUS42 KFFC 221127
TAFFTY
TAF
KFTY 221127Z 2212/2312 35007KT P6SM SKC
     FM221400 03006KT P6SM FEW040
     FM222000 33005KT P6SM FEW050
     FM230800 09003KT P6SM SKC=



Latest METAR

449
SAUS70 KWBC 221300 RRD
MTRFTY
METAR KFTY 221253Z 01004KT 10SM CLR 14/09 A3020 RMK AO2 SLP221
T01440089


USA.gov is the U.S. government's official web portal to all federal, state and local government web resources and services.